sensor_id;sensor_type;location;lat;lon;timestamp;temperature;humidity
7934;DHT22;4012;48.896;9.192;2023-12-07T00:00:35;3.60;99.90
7934;DHT22;4012;48.896;9.192;2023-12-07T00:03:01;3.60;99.90
7934;DHT22;4012;48.896;9.192;2023-12-07T00:05:26;3.60;99.90
7934;DHT22;4012;48.896;9.192;2023-12-07T00:07:52;3.60;99.90
7934;DHT22;4012;48.896;9.192;2023-12-07T00:10:17;3.60;99.90
7934;DHT22;4012;48.896;9.192;2023-12-07T00:12:43;3.60;99.90
7934;DHT22;4012;48.896;9.192;2023-12-07T00:15:09;3.60;99.90
7934;DHT22;4012;48.896;9.192;2023-12-07T00:17:34;3.70;99.90
7934;DHT22;4012;48.896;9.192;2023-12-07T00:20:00;3.60;99.90
7934;DHT22;4012;48.896;9.192;2023-12-07T00:22:25;3.60;99.90
7934;DHT22;4012;48.896;9.192;2023-12-07T00:24:52;3.60;99.90
7934;DHT22;4012;48.896;9.192;2023-12-07T00:27:18;3.60;99.90
7934;DHT22;4012;48.896;9.192;2023-12-07T00:29:43;3.60;99.90
7934;DHT22;4012;48.896;9.192;2023-12-07T00:32:09;3.60;99.90
7934;DHT22;4012;48.896;9.192;2023-12-07T00:34:34;3.60;99.90
7934;DHT22;4012;48.896;9.192;2023-12-07T00:37:00;3.70;99.90
7934;DHT22;4012;48.896;9.192;2023-12-07T00:39:26;3.70;99.90
7934;DHT22;4012;48.896;9.192;2023-12-07T00:41:51;3.60;99.90
7934;DHT22;4012;48.896;9.192;2023-12-07T00:44:18;3.50;99.90
7934;DHT22;4012;48.896;9.192;2023-12-07T00:46:43;3.50;99.90
7934;DHT22;4012;48.896;9.192;2023-12-07T00:49:09;3.60;99.90
7934;DHT22;4012;48.896;9.192;2023-12-07T00:51:34;3.60;99.90
7934;DHT22;4012;48.896;9.192;2023-12-07T00:54:00;3.60;99.90
7934;DHT22;4012;48.896;9.192;2023-12-07T00:56:26;3.50;99.90
7934;DHT22;4012;48.896;9.192;2023-12-07T00:58:51;3.60;99.90
7934;DHT22;4012;48.896;9.192;2023-12-07T01:01:17;3.60;99.90
7934;DHT22;4012;48.896;9.192;2023-12-07T01:03:43;3.60;99.90
7934;DHT22;4012;48.896;9.192;2023-12-07T01:06:08;3.70;99.90
7934;DHT22;4012;48.896;9.192;2023-12-07T01:08:36;3.70;99.90
7934;DHT22;4012;48.896;9.192;2023-12-07T01:11:03;3.70;99.90
7934;DHT22;4012;48.896;9.192;2023-12-07T01:13:28;3.70;99.90
7934;DHT22;4012;48.896;9.192;2023-12-07T01:15:54;3.80;99.90
7934;DHT22;4012;48.896;9.192;2023-12-07T01:18:20;3.70;99.90
7934;DHT22;4012;48.896;9.192;2023-12-07T01:20:46;3.70;99.90
7934;DHT22;4012;48.896;9.192;2023-12-07T01:23:12;3.70;99.90
7934;DHT22;4012;48.896;9.192;2023-12-07T01:25:37;3.80;99.90
7934;DHT22;4012;48.896;9.192;2023-12-07T01:28:03;3.90;99.90
7934;DHT22;4012;48.896;9.192;2023-12-07T01:30:29;3.90;99.90
7934;DHT22;4012;48.896;9.192;2023-12-07T01:32:55;3.80;99.90
7934;DHT22;4012;48.896;9.192;2023-12-07T01:35:21;3.80;99.90
7934;DHT22;4012;48.896;9.192;2023-12-07T01:37:46;3.70;99.90
7934;DHT22;4012;48.896;9.192;2023-12-07T01:40:12;3.70;99.90
7934;DHT22;4012;48.896;9.192;2023-12-07T01:42:41;3.70;99.90
7934;DHT22;4012;48.896;9.192;2023-12-07T01:45:14;3.70;99.90
7934;DHT22;4012;48.896;9.192;2023-12-07T01:47:40;3.70;99.90
7934;DHT22;4012;48.896;9.192;2023-12-07T01:50:07;3.80;99.90
7934;DHT22;4012;48.896;9.192;2023-12-07T01:52:36;3.80;99.90
7934;DHT22;4012;48.896;9.192;2023-12-07T01:55:03;3.80;99.90
7934;DHT22;4012;48.896;9.192;2023-12-07T01:57:28;3.80;99.90
7934;DHT22;4012;48.896;9.192;2023-12-07T01:59:54;3.80;99.90
7934;DHT22;4012;48.896;9.192;2023-12-07T02:02:20;3.80;99.90
7934;DHT22;4012;48.896;9.192;2023-12-07T02:04:46;3.70;99.90
7934;DHT22;4012;48.896;9.192;2023-12-07T02:07:11;3.60;99.90
7934;DHT22;4012;48.896;9.192;2023-12-07T02:09:37;3.50;99.90
7934;DHT22;4012;48.896;9.192;2023-12-07T02:12:03;3.50;99.90
7934;DHT22;4012;48.896;9.192;2023-12-07T02:14:29;3.40;99.90
7934;DHT22;4012;48.896;9.192;2023-12-07T02:17:16;3.30;99.90
7934;DHT22;4012;48.896;9.192;2023-12-07T02:22:49;3.30;99.90
7934;DHT22;4012;48.896;9.192;2023-12-07T02:25:19;3.20;99.90
7934;DHT22;4012;48.896;9.192;2023-12-07T02:27:48;3.20;99.90
7934;DHT22;4012;48.896;9.192;2023-12-07T02:30:14;3.20;99.90
7934;DHT22;4012;48.896;9.192;2023-12-07T02:32:42;3.20;99.90
7934;DHT22;4012;48.896;9.192;2023-12-07T02:35:10;3.20;99.90
7934;DHT22;4012;48.896;9.192;2023-12-07T02:37:50;3.20;99.90
7934;DHT22;4012;48.896;9.192;2023-12-07T02:40:19;3.20;99.90
7934;DHT22;4012;48.896;9.192;2023-12-07T02:42:46;3.20;99.90
7934;DHT22;4012;48.896;9.192;2023-12-07T02:45:13;3.20;99.90
7934;DHT22;4012;48.896;9.192;2023-12-07T02:47:39;3.10;99.90
7934;DHT22;4012;48.896;9.192;2023-12-07T02:50:05;3.20;99.90
7934;DHT22;4012;48.896;9.192;2023-12-07T02:52:32;3.20;99.90
7934;DHT22;4012;48.896;9.192;2023-12-07T02:54:58;3.20;99.90
7934;DHT22;4012;48.896;9.192;2023-12-07T02:57:24;3.20;99.90
7934;DHT22;4012;48.896;9.192;2023-12-07T02:59:49;3.20;99.90
7934;DHT22;4012;48.896;9.192;2023-12-07T03:02:15;3.20;99.90
7934;DHT22;4012;48.896;9.192;2023-12-07T03:04:46;3.20;99.90
7934;DHT22;4012;48.896;9.192;2023-12-07T03:07:12;3.20;99.90
7934;DHT22;4012;48.896;9.192;2023-12-07T03:09:38;3.20;99.90
7934;DHT22;4012;48.896;9.192;2023-12-07T03:12:04;3.20;99.90
7934;DHT22;4012;48.896;9.192;2023-12-07T03:14:29;3.10;99.90
7934;DHT22;4012;48.896;9.192;2023-12-07T03:16:55;3.10;99.90
7934;DHT22;4012;48.896;9.192;2023-12-07T03:19:21;3.00;99.90
7934;DHT22;4012;48.896;9.192;2023-12-07T03:21:46;3.00;99.90
7934;DHT22;4012;48.896;9.192;2023-12-07T03:24:12;3.00;99.90
7934;DHT22;4012;48.896;9.192;2023-12-07T03:26:38;2.90;99.90
7934;DHT22;4012;48.896;9.192;2023-12-07T03:29:03;2.80;99.90
7934;DHT22;4012;48.896;9.192;2023-12-07T03:31:29;2.70;99.90
7934;DHT22;4012;48.896;9.192;2023-12-07T03:33:55;2.80;99.90
7934;DHT22;4012;48.896;9.192;2023-12-07T03:36:21;2.60;99.90
7934;DHT22;4012;48.896;9.192;2023-12-07T03:38:48;2.50;99.90
7934;DHT22;4012;48.896;9.192;2023-12-07T03:41:13;2.40;99.90
7934;DHT22;4012;48.896;9.192;2023-12-07T03:43:39;2.40;99.90
7934;DHT22;4012;48.896;9.192;2023-12-07T03:46:05;2.40;99.90
7934;DHT22;4012;48.896;9.192;2023-12-07T03:48:32;2.30;99.90
7934;DHT22;4012;48.896;9.192;2023-12-07T03:50:58;2.30;99.90
7934;DHT22;4012;48.896;9.192;2023-12-07T03:53:24;2.30;99.90
7934;DHT22;4012;48.896;9.192;2023-12-07T03:55:49;2.40;99.90
7934;DHT22;4012;48.896;9.192;2023-12-07T03:58:15;2.40;99.90
7934;DHT22;4012;48.896;9.192;2023-12-07T04:00:41;2.30;99.90
7934;DHT22;4012;48.896;9.192;2023-12-07T04:03:07;2.40;99.90
7934;DHT22;4012;48.896;9.192;2023-12-07T04:05:33;2.40;99.90
7934;DHT22;4012;48.896;9.192;2023-12-07T04:07:59;2.40;99.90
7934;DHT22;4012;48.896;9.192;2023-12-07T04:10:25;2.40;99.90
7934;DHT22;4012;48.896;9.192;2023-12-07T04:12:50;2.40;99.90
7934;DHT22;4012;48.896;9.192;2023-12-07T04:15:18;2.40;99.90
7934;DHT22;4012;48.896;9.192;2023-12-07T04:17:44;2.30;99.90
7934;DHT22;4012;48.896;9.192;2023-12-07T04:20:10;2.30;99.90
7934;DHT22;4012;48.896;9.192;2023-12-07T04:22:36;2.30;99.90
7934;DHT22;4012;48.896;9.192;2023-12-07T04:25:01;2.20;99.90
7934;DHT22;4012;48.896;9.192;2023-12-07T04:27:27;2.20;99.90
7934;DHT22;4012;48.896;9.192;2023-12-07T04:29:53;2.20;99.90
7934;DHT22;4012;48.896;9.192;2023-12-07T04:32:19;2.20;99.90
7934;DHT22;4012;48.896;9.192;2023-12-07T04:34:44;2.10;99.90
7934;DHT22;4012;48.896;9.192;2023-12-07T04:37:10;2.10;99.90
7934;DHT22;4012;48.896;9.192;2023-12-07T04:39:36;2.10;99.90
7934;DHT22;4012;48.896;9.192;2023-12-07T04:42:02;2.10;99.90
7934;DHT22;4012;48.896;9.192;2023-12-07T04:44:28;2.10;99.90
7934;DHT22;4012;48.896;9.192;2023-12-07T04:46:54;2.10;99.90
7934;DHT22;4012;48.896;9.192;2023-12-07T04:49:19;2.10;99.90
7934;DHT22;4012;48.896;9.192;2023-12-07T04:51:45;2.10;99.90
7934;DHT22;4012;48.896;9.192;2023-12-07T04:54:12;2.10;99.90
7934;DHT22;4012;48.896;9.192;2023-12-07T04:56:40;2.00;99.90
7934;DHT22;4012;48.896;9.192;2023-12-07T04:59:06;2.00;99.90
7934;DHT22;4012;48.896;9.192;2023-12-07T05:01:32;2.00;99.90
7934;DHT22;4012;48.896;9.192;2023-12-07T05:03:57;2.00;99.90
7934;DHT22;4012;48.896;9.192;2023-12-07T05:06:23;2.00;99.90
7934;DHT22;4012;48.896;9.192;2023-12-07T05:08:48;2.00;99.90
7934;DHT22;4012;48.896;9.192;2023-12-07T05:11:14;2.00;99.90
7934;DHT22;4012;48.896;9.192;2023-12-07T05:13:39;2.00;99.90
7934;DHT22;4012;48.896;9.192;2023-12-07T05:16:05;2.00;99.90
7934;DHT22;4012;48.896;9.192;2023-12-07T05:18:31;1.90;99.90
7934;DHT22;4012;48.896;9.192;2023-12-07T05:20:56;1.90;99.90
7934;DHT22;4012;48.896;9.192;2023-12-07T05:23:22;1.90;99.90
7934;DHT22;4012;48.896;9.192;2023-12-07T05:25:47;1.80;99.90
7934;DHT22;4012;48.896;9.192;2023-12-07T05:28:14;1.80;99.90
7934;DHT22;4012;48.896;9.192;2023-12-07T05:30:39;1.80;99.90
7934;DHT22;4012;48.896;9.192;2023-12-07T05:33:05;1.80;99.90
7934;DHT22;4012;48.896;9.192;2023-12-07T05:35:31;1.70;99.90
7934;DHT22;4012;48.896;9.192;2023-12-07T05:37:56;1.80;99.90
7934;DHT22;4012;48.896;9.192;2023-12-07T05:40:23;1.80;99.90
7934;DHT22;4012;48.896;9.192;2023-12-07T05:42:50;1.80;99.90
7934;DHT22;4012;48.896;9.192;2023-12-07T05:45:16;1.80;99.90
7934;DHT22;4012;48.896;9.192;2023-12-07T05:47:41;1.80;99.90
7934;DHT22;4012;48.896;9.192;2023-12-07T05:50:07;1.80;99.90
7934;DHT22;4012;48.896;9.192;2023-12-07T05:52:33;1.70;99.90
7934;DHT22;4012;48.896;9.192;2023-12-07T05:54:59;1.70;99.90
7934;DHT22;4012;48.896;9.192;2023-12-07T05:57:24;1.70;99.90
7934;DHT22;4012;48.896;9.192;2023-12-07T05:59:50;1.70;99.90
7934;DHT22;4012;48.896;9.192;2023-12-07T06:02:16;1.70;99.90
7934;DHT22;4012;48.896;9.192;2023-12-07T06:04:41;1.70;99.90
7934;DHT22;4012;48.896;9.192;2023-12-07T06:07:07;1.70;99.90
7934;DHT22;4012;48.896;9.192;2023-12-07T06:09:33;1.70;99.90
7934;DHT22;4012;48.896;9.192;2023-12-07T06:11:59;1.60;99.90
7934;DHT22;4012;48.896;9.192;2023-12-07T06:14:25;1.60;99.90
7934;DHT22;4012;48.896;9.192;2023-12-07T06:16:51;1.60;99.90
7934;DHT22;4012;48.896;9.192;2023-12-07T06:19:16;1.60;99.90
7934;DHT22;4012;48.896;9.192;2023-12-07T06:21:43;1.60;99.90
7934;DHT22;4012;48.896;9.192;2023-12-07T06:24:12;1.50;99.90
7934;DHT22;4012;48.896;9.192;2023-12-07T06:26:39;1.60;99.90
7934;DHT22;4012;48.896;9.192;2023-12-07T06:29:05;1.60;99.90
7934;DHT22;4012;48.896;9.192;2023-12-07T06:31:33;1.60;99.90
7934;DHT22;4012;48.896;9.192;2023-12-07T06:33:59;1.60;99.90
7934;DHT22;4012;48.896;9.192;2023-12-07T06:36:25;1.60;99.90
7934;DHT22;4012;48.896;9.192;2023-12-07T06:38:52;1.60;99.90
7934;DHT22;4012;48.896;9.192;2023-12-07T06:41:20;1.60;99.90
7934;DHT22;4012;48.896;9.192;2023-12-07T06:43:46;1.60;99.90
7934;DHT22;4012;48.896;9.192;2023-12-07T06:46:12;1.60;99.90
7934;DHT22;4012;48.896;9.192;2023-12-07T06:48:38;1.60;99.90
7934;DHT22;4012;48.896;9.192;2023-12-07T06:51:04;1.60;99.90
7934;DHT22;4012;48.896;9.192;2023-12-07T06:53:30;1.50;99.90
7934;DHT22;4012;48.896;9.192;2023-12-07T06:55:57;1.50;99.90
7934;DHT22;4012;48.896;9.192;2023-12-07T06:58:22;1.50;99.90
7934;DHT22;4012;48.896;9.192;2023-12-07T07:00:48;1.40;99.90
7934;DHT22;4012;48.896;9.192;2023-12-07T07:03:14;1.50;99.90
7934;DHT22;4012;48.896;9.192;2023-12-07T07:05:40;1.40;99.90
7934;DHT22;4012;48.896;9.192;2023-12-07T07:08:06;1.50;99.90
7934;DHT22;4012;48.896;9.192;2023-12-07T07:10:34;1.50;99.90
7934;DHT22;4012;48.896;9.192;2023-12-07T07:13:01;1.50;99.90
7934;DHT22;4012;48.896;9.192;2023-12-07T07:15:32;1.50;99.90
7934;DHT22;4012;48.896;9.192;2023-12-07T07:17:58;1.60;99.90
7934;DHT22;4012;48.896;9.192;2023-12-07T07:20:24;1.60;99.90
7934;DHT22;4012;48.896;9.192;2023-12-07T07:22:50;1.60;99.90
7934;DHT22;4012;48.896;9.192;2023-12-07T07:25:15;1.60;99.90
7934;DHT22;4012;48.896;9.192;2023-12-07T07:27:42;1.60;99.90
7934;DHT22;4012;48.896;9.192;2023-12-07T07:30:08;1.60;99.90
7934;DHT22;4012;48.896;9.192;2023-12-07T07:32:34;1.60;99.90
7934;DHT22;4012;48.896;9.192;2023-12-07T07:35:00;1.60;99.90
7934;DHT22;4012;48.896;9.192;2023-12-07T07:37:26;1.60;99.90
7934;DHT22;4012;48.896;9.192;2023-12-07T07:39:51;1.50;99.90
7934;DHT22;4012;48.896;9.192;2023-12-07T07:42:17;1.60;99.90
7934;DHT22;4012;48.896;9.192;2023-12-07T07:44:43;1.60;99.90
7934;DHT22;4012;48.896;9.192;2023-12-07T07:47:08;1.50;99.90
7934;DHT22;4012;48.896;9.192;2023-12-07T07:49:34;1.50;99.90
7934;DHT22;4012;48.896;9.192;2023-12-07T07:52:00;1.50;99.90
7934;DHT22;4012;48.896;9.192;2023-12-07T07:54:26;1.50;99.90
7934;DHT22;4012;48.896;9.192;2023-12-07T07:56:51;1.50;99.90
7934;DHT22;4012;48.896;9.192;2023-12-07T07:59:17;1.50;99.90
7934;DHT22;4012;48.896;9.192;2023-12-07T08:01:43;1.60;99.90
7934;DHT22;4012;48.896;9.192;2023-12-07T08:04:12;1.80;99.90
7934;DHT22;4012;48.896;9.192;2023-12-07T08:06:37;1.80;99.90
7934;DHT22;4012;48.896;9.192;2023-12-07T08:09:03;1.70;99.90
7934;DHT22;4012;48.896;9.192;2023-12-07T08:11:29;1.90;99.90
7934;DHT22;4012;48.896;9.192;2023-12-07T08:13:55;2.00;99.90
7934;DHT22;4012;48.896;9.192;2023-12-07T08:16:20;2.00;99.90
7934;DHT22;4012;48.896;9.192;2023-12-07T08:18:46;2.00;99.90
7934;DHT22;4012;48.896;9.192;2023-12-07T08:21:22;2.10;99.90
7934;DHT22;4012;48.896;9.192;2023-12-07T08:23:48;2.10;99.90
7934;DHT22;4012;48.896;9.192;2023-12-07T08:26:14;2.00;99.90
7934;DHT22;4012;48.896;9.192;2023-12-07T08:28:43;2.00;99.90
7934;DHT22;4012;48.896;9.192;2023-12-07T08:31:10;2.00;99.90
7934;DHT22;4012;48.896;9.192;2023-12-07T08:33:35;2.00;99.90
7934;DHT22;4012;48.896;9.192;2023-12-07T08:36:05;2.00;99.90
7934;DHT22;4012;48.896;9.192;2023-12-07T08:38:31;2.10;99.90
7934;DHT22;4012;48.896;9.192;2023-12-07T08:40:57;2.10;99.90
7934;DHT22;4012;48.896;9.192;2023-12-07T08:43:23;2.20;99.90
7934;DHT22;4012;48.896;9.192;2023-12-07T08:45:53;2.10;99.90
7934;DHT22;4012;48.896;9.192;2023-12-07T08:48:19;2.20;99.90
7934;DHT22;4012;48.896;9.192;2023-12-07T08:50:46;2.20;99.90
7934;DHT22;4012;48.896;9.192;2023-12-07T08:53:11;2.10;99.90
7934;DHT22;4012;48.896;9.192;2023-12-07T08:55:37;2.20;99.90
7934;DHT22;4012;48.896;9.192;2023-12-07T08:58:03;2.20;99.90
7934;DHT22;4012;48.896;9.192;2023-12-07T09:00:31;2.30;99.90
7934;DHT22;4012;48.896;9.192;2023-12-07T09:02:57;2.30;99.90
7934;DHT22;4012;48.896;9.192;2023-12-07T09:05:23;2.80;99.90
7934;DHT22;4012;48.896;9.192;2023-12-07T09:07:48;4.80;99.90
7934;DHT22;4012;48.896;9.192;2023-12-07T09:10:14;5.30;99.90
7934;DHT22;4012;48.896;9.192;2023-12-07T09:12:40;6.30;99.90
7934;DHT22;4012;48.896;9.192;2023-12-07T09:15:07;8.90;99.90
7934;DHT22;4012;48.896;9.192;2023-12-07T09:17:39;10.60;99.90
7934;DHT22;4012;48.896;9.192;2023-12-07T09:20:07;12.10;99.90
7934;DHT22;4012;48.896;9.192;2023-12-07T09:22:38;12.70;99.90
7934;DHT22;4012;48.896;9.192;2023-12-07T09:25:04;12.50;99.90
7934;DHT22;4012;48.896;9.192;2023-12-07T09:27:30;13.30;99.90
7934;DHT22;4012;48.896;9.192;2023-12-07T09:29:58;13.30;99.90
7934;DHT22;4012;48.896;9.192;2023-12-07T09:32:24;11.90;99.90
7934;DHT22;4012;48.896;9.192;2023-12-07T09:34:49;11.50;99.90
7934;DHT22;4012;48.896;9.192;2023-12-07T09:37:16;11.50;99.90
7934;DHT22;4012;48.896;9.192;2023-12-07T09:39:42;12.10;99.90
7934;DHT22;4012;48.896;9.192;2023-12-07T09:42:08;12.50;99.90
7934;DHT22;4012;48.896;9.192;2023-12-07T09:44:33;13.20;99.90
7934;DHT22;4012;48.896;9.192;2023-12-07T09:46:59;13.40;99.90
7934;DHT22;4012;48.896;9.192;2023-12-07T09:49:25;12.40;99.90
7934;DHT22;4012;48.896;9.192;2023-12-07T09:51:51;12.60;99.90
7934;DHT22;4012;48.896;9.192;2023-12-07T09:54:17;9.40;99.90
7934;DHT22;4012;48.896;9.192;2023-12-07T09:56:44;10.60;99.90
7934;DHT22;4012;48.896;9.192;2023-12-07T09:59:10;9.80;99.90
7934;DHT22;4012;48.896;9.192;2023-12-07T10:01:35;10.90;99.90
7934;DHT22;4012;48.896;9.192;2023-12-07T10:04:20;11.60;99.90
7934;DHT22;4012;48.896;9.192;2023-12-07T10:06:46;12.30;99.90
7934;DHT22;4012;48.896;9.192;2023-12-07T10:09:13;12.40;99.90
7934;DHT22;4012;48.896;9.192;2023-12-07T10:11:39;12.70;99.90
7934;DHT22;4012;48.896;9.192;2023-12-07T10:14:06;12.90;99.90
7934;DHT22;4012;48.896;9.192;2023-12-07T10:16:33;13.80;99.90
7934;DHT22;4012;48.896;9.192;2023-12-07T10:19:14;13.30;99.90
7934;DHT22;4012;48.896;9.192;2023-12-07T10:21:41;13.70;99.90
7934;DHT22;4012;48.896;9.192;2023-12-07T10:24:09;13.70;99.90
7934;DHT22;4012;48.896;9.192;2023-12-07T10:26:35;13.30;99.90
7934;DHT22;4012;48.896;9.192;2023-12-07T10:29:05;12.90;99.90
7934;DHT22;4012;48.896;9.192;2023-12-07T10:31:32;12.20;99.90
7934;DHT22;4012;48.896;9.192;2023-12-07T10:33:59;11.30;99.90
7934;DHT22;4012;48.896;9.192;2023-12-07T10:36:26;11.40;99.90
7934;DHT22;4012;48.896;9.192;2023-12-07T10:38:53;12.50;99.90
7934;DHT22;4012;48.896;9.192;2023-12-07T10:41:23;12.20;99.90
7934;DHT22;4012;48.896;9.192;2023-12-07T10:44:01;10.70;99.90
7934;DHT22;4012;48.896;9.192;2023-12-07T10:46:29;8.10;99.90
7934;DHT22;4012;48.896;9.192;2023-12-07T10:49:04;7.80;99.90
7934;DHT22;4012;48.896;9.192;2023-12-07T10:53:57;9.70;99.90
7934;DHT22;4012;48.896;9.192;2023-12-07T10:56:39;10.50;99.90
7934;DHT22;4012;48.896;9.192;2023-12-07T10:59:09;10.70;99.90
7934;DHT22;4012;48.896;9.192;2023-12-07T11:01:42;10.00;99.90
7934;DHT22;4012;48.896;9.192;2023-12-07T11:04:11;8.90;99.90
7934;DHT22;4012;48.896;9.192;2023-12-07T11:06:36;7.80;99.90
7934;DHT22;4012;48.896;9.192;2023-12-07T11:09:08;6.80;99.90
7934;DHT22;4012;48.896;9.192;2023-12-07T11:11:49;6.90;99.90
7934;DHT22;4012;48.896;9.192;2023-12-07T11:14:16;6.30;99.90
7934;DHT22;4012;48.896;9.192;2023-12-07T11:16:46;6.20;99.90
7934;DHT22;4012;48.896;9.192;2023-12-07T11:22:10;6.00;99.90
7934;DHT22;4012;48.896;9.192;2023-12-07T11:24:36;5.90;99.90
7934;DHT22;4012;48.896;9.192;2023-12-07T11:27:02;5.80;99.90
7934;DHT22;4012;48.896;9.192;2023-12-07T11:29:31;5.70;99.90
7934;DHT22;4012;48.896;9.192;2023-12-07T11:32:04;5.80;99.90
7934;DHT22;4012;48.896;9.192;2023-12-07T11:34:37;5.80;99.90
7934;DHT22;4012;48.896;9.192;2023-12-07T11:37:03;5.80;99.90
7934;DHT22;4012;48.896;9.192;2023-12-07T11:39:34;5.70;99.90
7934;DHT22;4012;48.896;9.192;2023-12-07T11:42:06;6.30;99.90
7934;DHT22;4012;48.896;9.192;2023-12-07T11:44:34;6.60;99.90
7934;DHT22;4012;48.896;9.192;2023-12-07T11:47:00;6.50;99.90
7934;DHT22;4012;48.896;9.192;2023-12-07T11:49:26;6.50;99.90
7934;DHT22;4012;48.896;9.192;2023-12-07T11:51:53;6.30;99.90
7934;DHT22;4012;48.896;9.192;2023-12-07T11:54:19;6.20;99.90
7934;DHT22;4012;48.896;9.192;2023-12-07T11:56:44;6.10;99.90
7934;DHT22;4012;48.896;9.192;2023-12-07T11:59:14;6.10;99.90
7934;DHT22;4012;48.896;9.192;2023-12-07T12:01:46;6.10;99.90
7934;DHT22;4012;48.896;9.192;2023-12-07T12:04:12;6.00;99.90
7934;DHT22;4012;48.896;9.192;2023-12-07T12:06:38;5.90;99.90
7934;DHT22;4012;48.896;9.192;2023-12-07T12:09:03;5.90;99.90
7934;DHT22;4012;48.896;9.192;2023-12-07T12:11:29;5.80;99.90
7934;DHT22;4012;48.896;9.192;2023-12-07T12:13:55;5.70;99.90
7934;DHT22;4012;48.896;9.192;2023-12-07T12:16:20;5.80;99.90
7934;DHT22;4012;48.896;9.192;2023-12-07T12:18:46;5.70;99.90
7934;DHT22;4012;48.896;9.192;2023-12-07T12:21:12;5.80;99.90
7934;DHT22;4012;48.896;9.192;2023-12-07T12:23:37;5.80;99.90
7934;DHT22;4012;48.896;9.192;2023-12-07T12:26:06;5.50;99.90
7934;DHT22;4012;48.896;9.192;2023-12-07T12:28:32;5.70;99.90
7934;DHT22;4012;48.896;9.192;2023-12-07T12:30:58;5.70;99.90
7934;DHT22;4012;48.896;9.192;2023-12-07T12:33:24;5.70;99.90
7934;DHT22;4012;48.896;9.192;2023-12-07T12:36:02;5.70;99.90
7934;DHT22;4012;48.896;9.192;2023-12-07T12:38:28;5.70;99.90
7934;DHT22;4012;48.896;9.192;2023-12-07T12:40:54;5.70;99.90
7934;DHT22;4012;48.896;9.192;2023-12-07T12:43:20;5.80;99.90
7934;DHT22;4012;48.896;9.192;2023-12-07T12:45:47;5.90;99.90
7934;DHT22;4012;48.896;9.192;2023-12-07T12:48:12;5.80;99.90
7934;DHT22;4012;48.896;9.192;2023-12-07T12:50:40;5.90;99.90
7934;DHT22;4012;48.896;9.192;2023-12-07T12:53:10;5.90;99.90
7934;DHT22;4012;48.896;9.192;2023-12-07T12:55:37;5.80;99.90
7934;DHT22;4012;48.896;9.192;2023-12-07T12:58:05;5.60;99.90
7934;DHT22;4012;48.896;9.192;2023-12-07T13:00:33;5.60;99.90
7934;DHT22;4012;48.896;9.192;2023-12-07T13:03:03;5.70;99.90
7934;DHT22;4012;48.896;9.192;2023-12-07T13:05:28;5.80;99.90
7934;DHT22;4012;48.896;9.192;2023-12-07T13:07:54;5.70;99.90
7934;DHT22;4012;48.896;9.192;2023-12-07T13:10:20;5.70;99.90
7934;DHT22;4012;48.896;9.192;2023-12-07T13:12:46;5.80;99.90
7934;DHT22;4012;48.896;9.192;2023-12-07T13:15:12;5.80;99.90
7934;DHT22;4012;48.896;9.192;2023-12-07T13:17:39;5.80;99.90
7934;DHT22;4012;48.896;9.192;2023-12-07T13:20:06;5.80;99.90
7934;DHT22;4012;48.896;9.192;2023-12-07T13:22:42;5.80;99.90
7934;DHT22;4012;48.896;9.192;2023-12-07T13:25:09;5.70;99.90
7934;DHT22;4012;48.896;9.192;2023-12-07T13:27:36;5.70;99.90
7934;DHT22;4012;48.896;9.192;2023-12-07T13:30:02;5.80;99.90
7934;DHT22;4012;48.896;9.192;2023-12-07T13:32:33;5.70;99.90
7934;DHT22;4012;48.896;9.192;2023-12-07T13:34:59;5.60;99.90
7934;DHT22;4012;48.896;9.192;2023-12-07T13:37:24;5.90;99.90
7934;DHT22;4012;48.896;9.192;2023-12-07T13:39:50;6.20;99.90
7934;DHT22;4012;48.896;9.192;2023-12-07T13:42:21;6.10;99.90
7934;DHT22;4012;48.896;9.192;2023-12-07T13:44:47;6.00;99.90
7934;DHT22;4012;48.896;9.192;2023-12-07T13:47:15;5.90;99.90
7934;DHT22;4012;48.896;9.192;2023-12-07T13:49:42;5.70;99.90
7934;DHT22;4012;48.896;9.192;2023-12-07T13:52:08;5.80;99.90
7934;DHT22;4012;48.896;9.192;2023-12-07T13:54:36;5.80;99.90
7934;DHT22;4012;48.896;9.192;2023-12-07T13:57:02;5.80;99.90
7934;DHT22;4012;48.896;9.192;2023-12-07T13:59:29;5.70;99.90
7934;DHT22;4012;48.896;9.192;2023-12-07T14:01:54;5.60;99.90
7934;DHT22;4012;48.896;9.192;2023-12-07T14:04:21;5.60;99.90
7934;DHT22;4012;48.896;9.192;2023-12-07T14:06:46;5.70;99.90
7934;DHT22;4012;48.896;9.192;2023-12-07T14:09:12;5.80;99.90
7934;DHT22;4012;48.896;9.192;2023-12-07T14:11:37;5.90;99.90
7934;DHT22;4012;48.896;9.192;2023-12-07T14:14:05;5.90;99.90
7934;DHT22;4012;48.896;9.192;2023-12-07T14:16:30;5.90;99.90
7934;DHT22;4012;48.896;9.192;2023-12-07T14:18:56;5.90;99.90
7934;DHT22;4012;48.896;9.192;2023-12-07T14:21:22;5.80;99.90
7934;DHT22;4012;48.896;9.192;2023-12-07T14:23:48;5.80;99.90
7934;DHT22;4012;48.896;9.192;2023-12-07T14:26:14;5.70;99.90
7934;DHT22;4012;48.896;9.192;2023-12-07T14:28:39;5.70;99.90
7934;DHT22;4012;48.896;9.192;2023-12-07T14:31:05;5.70;99.90
7934;DHT22;4012;48.896;9.192;2023-12-07T14:33:36;5.70;99.90
7934;DHT22;4012;48.896;9.192;2023-12-07T14:36:01;5.70;99.90
7934;DHT22;4012;48.896;9.192;2023-12-07T14:38:27;5.70;99.90
7934;DHT22;4012;48.896;9.192;2023-12-07T14:40:53;5.70;99.90
7934;DHT22;4012;48.896;9.192;2023-12-07T14:43:20;5.60;99.90
7934;DHT22;4012;48.896;9.192;2023-12-07T14:48:52;5.60;99.90
7934;DHT22;4012;48.896;9.192;2023-12-07T14:51:21;5.50;99.90
7934;DHT22;4012;48.896;9.192;2023-12-07T14:53:50;5.30;99.90
7934;DHT22;4012;48.896;9.192;2023-12-07T14:56:18;5.20;99.90
7934;DHT22;4012;48.896;9.192;2023-12-07T14:58:43;5.20;99.90
7934;DHT22;4012;48.896;9.192;2023-12-07T15:01:09;5.20;99.90
7934;DHT22;4012;48.896;9.192;2023-12-07T15:03:35;5.10;99.90
7934;DHT22;4012;48.896;9.192;2023-12-07T15:06:01;5.00;99.90
7934;DHT22;4012;48.896;9.192;2023-12-07T15:08:27;4.90;99.90
7934;DHT22;4012;48.896;9.192;2023-12-07T15:10:52;4.90;99.90
7934;DHT22;4012;48.896;9.192;2023-12-07T15:13:20;4.80;99.90
7934;DHT22;4012;48.896;9.192;2023-12-07T15:15:46;4.70;99.90
7934;DHT22;4012;48.896;9.192;2023-12-07T15:18:11;4.70;99.90
7934;DHT22;4012;48.896;9.192;2023-12-07T15:20:37;4.60;99.90
7934;DHT22;4012;48.896;9.192;2023-12-07T15:23:03;4.60;99.90
7934;DHT22;4012;48.896;9.192;2023-12-07T15:25:29;4.60;99.90
7934;DHT22;4012;48.896;9.192;2023-12-07T15:27:55;4.50;99.90
7934;DHT22;4012;48.896;9.192;2023-12-07T15:30:21;4.40;99.90
7934;DHT22;4012;48.896;9.192;2023-12-07T15:32:52;4.40;99.90
7934;DHT22;4012;48.896;9.192;2023-12-07T15:35:18;4.30;99.90
7934;DHT22;4012;48.896;9.192;2023-12-07T15:37:44;4.20;99.90
7934;DHT22;4012;48.896;9.192;2023-12-07T15:40:10;4.20;99.90
7934;DHT22;4012;48.896;9.192;2023-12-07T15:42:39;4.10;99.90
7934;DHT22;4012;48.896;9.192;2023-12-07T15:45:07;4.00;99.90
7934;DHT22;4012;48.896;9.192;2023-12-07T15:47:33;4.00;99.90
7934;DHT22;4012;48.896;9.192;2023-12-07T15:49:58;4.30;99.90
7934;DHT22;4012;48.896;9.192;2023-12-07T15:52:24;4.40;99.90
7934;DHT22;4012;48.896;9.192;2023-12-07T15:54:50;4.20;99.90
7934;DHT22;4012;48.896;9.192;2023-12-07T15:57:16;4.00;99.90
7934;DHT22;4012;48.896;9.192;2023-12-07T15:59:42;4.10;99.90
7934;DHT22;4012;48.896;9.192;2023-12-07T16:02:08;3.90;99.90
7934;DHT22;4012;48.896;9.192;2023-12-07T16:04:34;3.80;99.90
7934;DHT22;4012;48.896;9.192;2023-12-07T16:07:01;3.80;99.90
7934;DHT22;4012;48.896;9.192;2023-12-07T16:09:29;3.70;99.90
7934;DHT22;4012;48.896;9.192;2023-12-07T16:11:55;3.70;99.90
7934;DHT22;4012;48.896;9.192;2023-12-07T16:14:20;3.60;99.90
7934;DHT22;4012;48.896;9.192;2023-12-07T16:16:46;3.60;99.90
7934;DHT22;4012;48.896;9.192;2023-12-07T16:19:12;3.60;99.90
7934;DHT22;4012;48.896;9.192;2023-12-07T16:21:37;3.50;99.90
7934;DHT22;4012;48.896;9.192;2023-12-07T16:24:03;3.50;99.90